Time;durP1;ratioP1;P1;durP2;ratioP2;P2;SDS_P1;SDS_P2;PMS_P1;PMS_P2;Temp;Humidity;BMP_temperature;BMP_pressure;BME280_temperature;BME280_humidity;BME280_pressure;Samples;Min_cycle;Max_cycle;Signal;HPM_P1;HPM_P2
2021/06/09 00:00:51;;;;;;;17.13;13.60;;;15.40;99.90;;;14.77;93.96;98045.69;5043062;28;20094;-68
2021/06/09 00:03:20;;;;;;;21.00;16.20;;;15.30;99.90;;;14.74;95.62;98051.91;5046878;28;20046;-69
2021/06/09 00:05:49;;;;;;;23.67;15.45;;;15.20;99.90;;;14.75;95.82;98055.38;5045440;28;20048;-69
2021/06/09 00:08:18;;;;;;;21.02;14.80;;;15.30;99.90;;;14.79;95.69;98049.91;5033537;28;20195;-69
2021/06/09 00:10:55;;;;;;;18.45;14.55;;;15.30;99.90;;;14.78;94.50;98066.53;5038178;28;20113;-69
2021/06/09 00:13:27;;;;;;;18.85;14.35;;;15.30;99.90;;;14.71;94.82;98064.28;5040152;28;20563;-69
2021/06/09 00:15:57;;;;;;;12.88;10.13;;;15.30;99.90;;;14.68;94.12;98062.69;5031103;28;20044;-69
2021/06/09 00:18:24;;;;;;;14.65;10.75;;;15.30;99.90;;;14.76;93.76;98062.31;5031400;28;20068;-68
2021/06/09 00:20:51;;;;;;;16.75;10.52;;;15.30;99.90;;;14.72;93.29;98058.16;5056036;28;20502;-69
2021/06/09 00:23:20;;;;;;;18.55;11.63;;;15.30;99.90;;;14.72;93.71;98061.59;5059545;28;20542;-68
2021/06/09 00:25:52;;;;;;;19.08;14.27;;;15.30;99.90;;;14.69;93.59;98068.75;5034851;28;20101;-69
2021/06/09 00:28:19;;;;;;;17.17;11.32;;;15.20;99.90;;;14.46;92.37;98064.66;5050252;28;20087;-69
2021/06/09 00:30:48;;;;;;;17.05;13.52;;;15.10;99.90;;;14.47;93.45;98072.44;5056277;28;20062;-69
2021/06/09 00:33:15;;;;;;;25.08;17.42;;;15.10;99.90;;;14.42;94.64;98072.66;5036819;28;20044;-70
2021/06/09 00:35:43;;;;;;;21.75;16.50;;;15.00;99.90;;;14.54;95.82;98068.63;5045845;28;20045;-69
2021/06/09 00:38:10;;;;;;;21.15;14.07;;;15.00;99.90;;;14.53;95.42;98077.34;5035772;28;20075;-69
2021/06/09 00:40:37;;;;;;;16.20;11.13;;;15.10;99.90;;;14.55;94.90;98077.28;5060911;28;20362;-69
2021/06/09 00:43:13;;;;;;;17.23;13.38;;;15.10;99.90;;;14.62;94.57;98074.31;5058325;28;20037;-69
2021/06/09 00:45:44;;;;;;;13.18;11.82;;;15.10;99.90;;;14.56;95.38;98082.44;5048971;28;20053;-69
2021/06/09 00:48:12;;;;;;;16.50;11.27;;;15.10;99.90;;;14.46;93.42;98077.72;5034076;28;20038;-70
2021/06/09 00:50:40;;;;;;;14.30;10.48;;;15.10;99.90;;;14.35;93.30;98080.91;5032631;28;20095;-69
2021/06/09 00:55:58;;;;;;;16.90;13.25;;;15.00;99.90;;;14.52;93.50;98077.41;5052757;28;20191;-68
2021/06/09 00:58:26;;;;;;;13.45;10.23;;;15.00;99.90;;;14.49;92.27;98070.59;5042000;28;20095;-69
2021/06/09 01:00:54;;;;;;;11.18;8.43;;;15.10;99.90;;;14.53;91.72;98073.88;5046241;28;20098;-69
2021/06/09 01:03:21;;;;;;;13.98;9.55;;;15.10;99.90;;;14.51;91.82;98076.59;5033319;28;20061;-68
2021/06/09 01:05:49;;;;;;;13.93;8.75;;;15.20;99.90;;;14.52;91.97;98069.59;5029295;28;20038;-69
2021/06/09 01:08:17;;;;;;;21.60;12.05;;;15.20;99.90;;;14.63;92.28;98072.53;5036655;28;20560;-68
2021/06/09 01:10:52;;;;;;;14.65;9.93;;;15.20;99.90;;;14.61;91.81;98071.75;5031095;28;20206;-69
2021/06/09 01:13:26;;;;;;;14.75;10.00;;;15.20;99.90;;;14.68;91.49;98075.75;5041675;28;20038;-68
2021/06/09 01:15:53;;;;;;;13.05;11.63;;;15.30;99.90;;;14.64;92.46;98074.22;5031252;28;20091;-69
2021/06/09 01:18:20;;;;;;;20.40;12.40;;;15.30;99.90;;;14.69;92.30;98069.63;5028964;28;20555;-69
2021/06/09 01:20:49;;;;;;;29.10;12.52;;;15.30;99.90;;;14.65;92.18;98070.69;5032203;28;20067;-69
2021/06/09 01:23:17;;;;;;;14.63;10.40;;;15.30;99.90;;;14.73;91.50;98078.13;5026104;28;20127;-69
2021/06/09 01:25:46;;;;;;;18.52;13.95;;;15.30;99.90;;;14.69;91.08;98068.75;5028102;28;20037;-69
2021/06/09 01:28:13;;;;;;;12.95;9.93;;;15.30;99.90;;;14.77;89.74;98056.97;5028393;28;20123;-69
2021/06/09 01:30:41;;;;;;;19.98;9.48;;;15.20;99.90;;;14.68;91.14;98065.28;5029747;28;20042;-69
2021/06/09 01:33:09;;;;;;;12.02;9.70;;;15.30;99.90;;;14.82;90.48;98065.44;5028335;28;20064;-69
2021/06/09 01:35:37;;;;;;;12.38;8.75;;;15.20;99.90;;;14.70;89.94;98068.69;5029861;28;20045;-69
2021/06/09 01:38:06;;;;;;;11.82;8.68;;;15.30;99.90;;;14.66;90.07;98072.38;5025784;28;20131;-69
2021/06/09 01:40:34;;;;;;;14.85;9.98;;;15.30;99.90;;;14.55;90.97;98072.94;5029343;28;20110;-68
2021/06/09 01:43:02;;;;;;;11.05;9.68;;;15.20;99.90;;;14.53;91.49;98066.03;5027431;28;20103;-69
2021/06/09 01:45:33;;;;;;;18.92;12.27;;;15.20;99.90;;;14.61;92.47;98070.00;5029550;28;20474;-68
2021/06/09 01:48:02;;;;;;;13.13;10.90;;;15.20;99.90;;;14.67;91.80;98068.84;5027500;28;20033;-69
2021/06/09 01:50:30;;;;;;;10.90;9.63;;;15.20;99.90;;;14.74;90.77;98069.38;5043797;28;20465;-69
2021/06/09 01:53:02;;;;;;;13.40;9.13;;;15.30;99.90;;;14.74;90.37;98072.00;5028700;28;20509;-69
2021/06/09 01:55:34;;;;;;;14.40;10.13;;;15.30;99.90;;;14.59;91.47;98066.59;5012943;28;20194;-69
2021/06/09 01:58:01;;;;;;;11.88;10.48;;;15.30;99.90;;;14.65;92.25;98068.06;5022019;28;20099;-69
2021/06/09 02:00:34;;;;;;;15.95;13.32;;;15.40;99.90;;;14.67;92.43;98065.41;5035816;28;20044;-69
2021/06/09 02:03:01;;;;;;;20.23;13.95;;;15.30;99.90;;;14.61;92.91;98066.53;5039100;28;20053;-69
2021/06/09 02:05:34;;;;;;;15.68;12.80;;;15.20;99.90;;;14.67;93.81;98068.00;5034820;28;20079;-69
2021/06/09 02:08:07;;;;;;;16.83;13.52;;;15.30;99.90;;;14.68;93.37;98054.00;5015556;28;20038;-69
2021/06/09 02:10:36;;;;;;;17.08;13.55;;;15.30;99.90;;;14.54;94.07;98046.84;5013032;28;20046;-69
2021/06/09 02:13:08;;;;;;;19.05;15.45;;;15.30;99.90;;;14.49;94.17;98051.47;5019297;28;20041;-69
2021/06/09 02:15:36;;;;;;;19.23;15.43;;;15.20;99.90;;;14.60;94.50;98049.19;5044351;28;20071;-68
2021/06/09 02:18:12;;;;;;;27.30;17.92;;;15.20;99.90;;;14.53;94.93;98048.63;5041015;28;20106;-69
2021/06/09 02:20:44;;;;;;;22.40;16.90;;;15.20;99.90;;;14.43;95.28;98056.06;5028986;28;20057;-69
2021/06/09 02:23:14;;;;;;;25.35;19.30;;;15.20;99.90;;;14.46;96.45;98056.81;5010439;28;20116;-68
2021/06/09 02:25:45;;;;;;;21.30;15.75;;;15.10;99.90;;;14.55;96.12;98054.66;5022812;28;20037;-69
2021/06/09 02:28:14;;;;;;;15.63;13.15;;;15.20;99.90;;;14.59;95.63;98050.94;5025043;28;20355;-69
2021/06/09 02:30:42;;;;;;;14.18;12.32;;;15.20;99.90;;;14.66;94.55;98058.47;5027174;28;20497;-69
2021/06/09 02:33:09;;;;;;;14.18;10.80;;;15.30;99.90;;;14.62;93.35;98063.84;5042064;28;20485;-68
2021/06/09 02:35:38;;;;;;;18.85;13.02;;;15.30;99.90;;;14.61;93.01;98061.31;5029917;28;20054;-69
2021/06/09 02:38:07;;;;;;;15.30;12.88;;;15.30;99.90;;;14.55;93.10;98059.00;5042018;28;20041;-68
2021/06/09 02:40:36;;;;;;;18.02;13.40;;;15.20;99.90;;;14.51;93.12;98058.31;5012390;28;20112;-68
2021/06/09 02:43:04;;;;;;;16.10;12.13;;;15.20;99.90;;;14.53;93.13;98061.69;5027095;28;20057;-69
2021/06/09 02:45:32;;;;;;;17.80;13.13;;;15.20;99.90;;;14.52;93.52;98059.97;5021760;28;20049;-69
2021/06/09 02:48:04;;;;;;;26.52;15.23;;;15.10;99.90;;;14.50;94.07;98055.75;5042964;28;20385;-70
2021/06/09 02:50:32;;;;;;;18.40;15.75;;;15.00;99.90;;;14.39;94.93;98053.69;5048466;28;20632;-69
2021/06/09 02:53:25;;;;;;;20.75;15.68;;;15.00;99.90;;;14.34;95.51;98053.91;5047608;28;20099;-69
2021/06/09 02:56:25;;;;;;;18.17;14.63;;;14.90;99.90;;;14.29;95.41;98053.31;5032797;28;20119;-69
2021/06/09 02:59:14;;;;;;;24.83;14.55;;;14.90;99.90;;;14.21;95.15;98053.69;5046434;28;20140;-69
2021/06/09 03:02:15;;;;;;;21.00;16.17;;;14.80;99.90;;;14.19;95.11;98044.25;5026358;28;20523;-69
2021/06/09 03:04:53;;;;;;;22.60;19.15;;;14.80;99.90;;;14.18;95.74;98053.81;5030034;28;20119;-68
2021/06/09 03:07:27;;;;;;;17.65;13.48;;;14.70;99.90;;;14.19;94.50;98047.69;5022140;28;20037;-69
2021/06/09 03:10:14;;;;;;;19.15;12.88;;;14.70;99.90;;;14.22;94.09;98049.31;5033311;28;20107;-69
2021/06/09 03:13:15;;;;;;;18.23;11.07;;;14.70;99.90;;;14.27;93.61;98051.69;5031101;28;20137;-69
2021/06/09 03:15:50;;;;;;;19.52;12.63;;;14.70;99.90;;;14.23;93.00;98053.59;5012491;28;20053;-67
2021/06/09 03:18:44;;;;;;;17.25;13.23;;;14.70;99.90;;;14.10;94.74;98053.38;5040540;28;20065;-69
2021/06/09 03:21:36;;;;;;;19.30;15.55;;;14.60;99.90;;;14.07;94.50;98058.75;5020803;28;20474;-69
2021/06/09 03:24:23;;;;;;;24.40;21.02;;;14.70;99.90;;;14.06;96.92;98057.06;5032850;28;20053;-69
2021/06/09 03:27:03;;;;;;;23.55;19.17;;;14.60;99.90;;;14.10;96.42;98057.75;5028600;28;20045;-69
2021/06/09 03:29:48;;;;;;;29.00;19.67;;;14.60;99.90;;;14.00;95.93;98058.22;5031874;28;20045;-69
2021/06/09 03:32:31;;;;;;;21.88;16.58;;;14.60;99.90;;;13.90;94.67;98053.50;5044340;28;20092;-69
2021/06/09 03:35:05;;;;;;;;;;;14.50;99.90;;;13.73;94.59;98052.56;5032260;28;20565;-69
2021/06/09 03:37:39;;;;;;;18.17;12.80;;;14.50;99.90;;;13.69;94.51;98052.78;5028132;28;19943;-68
2021/06/09 03:40:10;;;;;;;24.85;15.65;;;14.40;99.90;;;13.72;94.83;98048.25;5030713;28;20156;-69
2021/06/09 03:42:38;;;;;;;25.15;15.68;;;14.30;99.90;;;13.67;94.98;98047.63;5045751;28;20054;-69
2021/06/09 03:45:07;;;;;;;28.65;17.27;;;14.30;99.90;;;13.83;94.84;98050.34;5014568;28;20069;-70
2021/06/09 03:47:36;;;;;;;18.52;13.73;;;14.40;99.90;;;13.80;94.25;98051.34;5029685;28;20535;-69
2021/06/09 03:50:04;;;;;;;14.25;10.82;;;14.40;99.90;;;13.76;93.30;98051.56;5029966;28;20478;-69
2021/06/09 03:52:32;;;;;;;16.98;11.88;;;14.40;99.90;;;13.69;93.59;98053.63;5027977;28;20081;-69
2021/06/09 03:55:00;;;;;;;25.50;15.95;;;14.40;99.90;;;13.80;93.18;98063.56;5007174;28;20046;-69
2021/06/09 03:57:32;;;;;;;24.55;15.68;;;14.40;99.90;;;13.77;93.28;98054.06;5027606;28;20441;-69
2021/06/09 04:00:01;;;;;;;22.70;17.08;;;14.40;99.90;;;13.79;93.89;98062.69;5030587;28;20111;-68
2021/06/09 04:02:30;;;;;;;21.00;14.10;;;14.40;99.90;;;13.78;93.61;98052.34;5034624;28;20046;-68
2021/06/09 04:04:58;;;;;;;15.27;13.32;;;14.40;99.90;;;13.80;94.00;98064.38;5025669;28;20041;-68
2021/06/09 04:07:28;;;;;;;13.80;11.60;;;14.40;99.90;;;13.94;92.21;98060.28;5046440;28;20037;-68
2021/06/09 04:10:00;;;;;;;12.68;10.10;;;14.50;99.90;;;13.96;90.66;98059.28;5031536;28;20046;-69
2021/06/09 04:12:28;;;;;;;18.13;11.55;;;14.50;99.90;;;13.87;91.94;98064.09;5045858;28;20045;-69
2021/06/09 04:14:58;;;;;;;15.60;12.52;;;14.60;99.90;;;13.86;92.79;98057.19;5029590;28;20140;-68
2021/06/09 04:17:27;;;;;;;16.70;14.90;;;14.60;99.90;;;13.73;92.43;98056.91;5028133;28;20111;-69
2021/06/09 04:20:00;;;;;;;15.02;11.52;;;14.60;99.90;;;13.88;92.18;98057.94;5030885;28;20092;-69
2021/06/09 04:22:28;;;;;;;15.63;11.43;;;14.70;99.90;;;13.90;92.85;98059.56;5044473;28;20058;-69
2021/06/09 04:24:55;;;;;;;17.15;12.02;;;14.80;99.90;;;14.16;90.89;98065.28;5026358;28;20053;-68
2021/06/09 04:27:32;;;;;;;18.80;12.85;;;14.90;99.90;;;14.22;89.91;98060.59;5027187;28;20133;-69
2021/06/09 04:30:00;;;;;;;13.38;11.10;;;15.00;99.90;;;14.35;89.63;98058.22;5022637;28;20041;-69
2021/06/09 04:32:27;;;;;;;14.27;10.65;;;15.00;99.90;;;14.40;89.68;98060.59;5030249;28;20045;-69
2021/06/09 04:34:59;;;;;;;12.77;10.23;;;15.10;99.90;;;14.52;89.33;98054.75;5029455;28;20041;-68
2021/06/09 04:37:26;;;;;;;12.77;10.63;;;15.20;99.90;;;14.57;89.13;98060.63;5042439;28;20049;-69
2021/06/09 04:39:54;;;;;;;13.95;11.07;;;15.30;99.90;;;14.57;89.38;98059.78;5031773;28;20375;-68
2021/06/09 04:42:22;;;;;;;13.70;10.85;;;15.30;99.90;;;14.68;88.59;98061.84;5030573;28;20045;-68
2021/06/09 04:44:50;;;;;;;16.60;12.05;;;15.40;99.90;;;14.72;88.36;98061.59;5029237;28;20496;-69
2021/06/09 04:47:17;;;;;;;15.07;12.68;;;15.50;99.90;;;14.50;89.85;98066.19;5027485;28;20401;-69
2021/06/09 04:49:46;;;;;;;16.00;12.32;;;15.50;99.90;;;14.37;90.88;98061.59;5030784;28;20087;-69
2021/06/09 04:52:14;;;;;;;14.45;12.90;;;15.40;99.90;;;14.54;89.99;98066.00;5031133;28;20567;-69
2021/06/09 04:54:42;;;;;;;17.65;14.18;;;15.40;99.90;;;14.59;89.93;98066.59;5024539;28;20095;-69
2021/06/09 04:57:10;;;;;;;13.30;11.90;;;15.40;99.90;;;14.48;90.39;98068.03;5028276;28;20056;-68
2021/06/09 04:59:37;;;;;;;17.55;14.50;;;15.40;99.90;;;14.57;90.20;98063.25;5028782;28;20053;-69
2021/06/09 05:02:04;;;;;;;18.27;14.48;;;15.30;99.90;;;14.55;90.44;98067.72;5030767;28;20076;-68
2021/06/09 05:04:32;;;;;;;19.80;16.35;;;15.30;99.90;;;14.64;90.62;98064.63;5044314;28;20045;-68
2021/06/09 05:06:59;;;;;;;16.98;13.80;;;15.30;99.90;;;14.62;90.47;98060.41;5028274;28;20119;-69
2021/06/09 05:09:26;;;;;;;14.95;12.00;;;15.40;99.90;;;14.67;90.35;98060.16;5030529;28;20095;-69
2021/06/09 05:12:20;;;;;;;18.00;14.05;;;15.50;99.90;;;14.73;89.74;98063.28;5042341;28;20111;-69
2021/06/09 05:15:10;;;;;;;14.23;12.00;;;15.50;99.90;;;14.67;90.61;98061.00;5026646;28;20052;-68
2021/06/09 05:17:49;;;;;;;15.70;12.10;;;15.50;99.90;;;14.69;90.28;98060.91;5022236;28;20112;-69
2021/06/09 05:20:26;;;;;;;13.60;12.20;;;15.50;99.90;;;14.75;90.51;98058.81;5017115;28;20110;-68
2021/06/09 05:23:19;;;;;;;13.98;10.75;;;15.60;99.90;;;14.88;90.16;98053.81;5033351;28;20049;-69
2021/06/09 05:25:50;;;;;;;13.63;11.50;;;15.70;99.90;;;14.95;90.15;98057.78;5027093;28;20056;-69
2021/06/09 05:28:20;;;;;;;15.90;12.93;;;15.80;99.90;;;15.12;90.36;98063.88;5019234;28;20563;-68
2021/06/09 05:30:49;;;;;;;13.63;12.23;;;16.00;99.90;;;15.26;89.51;98071.88;5019799;28;20046;-69
2021/06/09 05:33:17;;;;;;;14.48;12.70;;;16.10;99.90;;;15.50;89.31;98064.44;5036367;28;20465;-68
2021/06/09 05:35:44;;;;;;;11.52;10.35;;;16.40;99.90;;;15.86;87.87;98069.44;5021870;28;20056;-68
2021/06/09 05:38:11;;;;;;;11.80;10.52;;;16.70;99.90;;;16.11;88.21;98062.81;5046688;28;20049;-69
2021/06/09 05:40:38;;;;;;;12.50;10.75;;;17.00;99.90;;;16.27;88.29;98060.16;5028858;28;20474;-68
2021/06/09 05:43:05;;;;;;;18.52;12.48;;;17.20;99.90;;;16.28;88.25;98062.72;5029167;28;20501;-68
2021/06/09 05:45:33;;;;;;;17.42;11.45;;;17.30;99.90;;;16.38;87.79;98062.16;5045778;28;20041;-67
2021/06/09 05:48:01;;;;;;;16.10;12.20;;;17.40;99.90;;;16.52;87.93;98056.94;5030542;28;20037;-67
2021/06/09 05:50:30;;;;;;;13.82;11.10;;;17.50;99.90;;;16.62;88.02;98057.25;5050636;28;20060;-67
2021/06/09 05:53:04;;;;;;;15.07;11.38;;;17.60;99.90;;;16.85;87.02;98071.63;5043532;28;20497;-68
2021/06/09 05:55:33;;;;;;;12.52;9.88;;;17.80;99.90;;;16.99;86.26;98058.53;5012794;28;20455;-68
2021/06/09 05:58:03;;;;;;;12.25;10.70;;;18.00;99.90;;;17.18;84.63;98058.25;5062092;28;20124;-68
2021/06/09 06:00:55;;;;;;;13.90;11.50;;;18.20;99.90;;;17.31;84.50;98059.19;5042985;28;20075;-68
2021/06/09 06:03:23;;;;;;;13.75;12.25;;;18.40;99.90;;;17.49;85.10;98061.56;5023630;28;20045;-67
2021/06/09 06:05:59;;;;;;;18.58;14.45;;;18.50;99.90;;;17.61;83.12;98058.19;5027114;28;20049;-67
2021/06/09 06:08:29;;;;;;;18.95;14.15;;;18.60;99.90;;;17.72;81.18;98058.34;5023142;28;20132;-67
2021/06/09 06:11:01;;;;;;;15.52;13.55;;;18.70;99.90;;;17.78;81.05;98059.72;5022924;28;20176;-68
2021/06/09 06:13:29;;;;;;;14.80;13.30;;;18.80;99.90;;;17.98;80.00;98056.69;5020561;28;20049;-67
2021/06/09 06:16:00;;;;;;;16.38;12.85;;;18.90;99.90;;;18.08;79.55;98053.44;5027238;28;20505;-68
2021/06/09 06:18:48;;;;;;;14.30;11.50;;;19.10;99.90;;;18.37;79.10;98057.63;5015182;28;20136;-68
2021/06/09 06:21:18;;;;;;;14.38;12.60;;;19.30;99.90;;;18.10;79.44;98062.91;5022901;28;20414;-69
2021/06/09 06:23:46;;;;;;;14.55;13.05;;;19.50;99.90;;;18.42;78.55;98057.31;5033880;28;20037;-70
2021/06/09 06:26:19;;;;;;;13.48;10.40;;;19.60;99.90;;;18.65;76.75;98049.66;5035485;28;20057;-69
2021/06/09 06:28:48;;;;;;;17.52;11.88;;;19.70;99.90;;;18.74;77.29;98057.75;5034855;28;21137;-69
2021/06/09 06:31:26;;;;;;;15.27;11.93;;;19.90;99.90;;;18.89;75.85;98055.91;5020348;28;20049;-70
2021/06/09 06:33:58;;;;;;;13.98;11.10;;;20.00;99.90;;;19.04;74.91;98051.38;5035035;28;20095;-68
2021/06/09 06:36:27;;;;;;;13.27;11.10;;;20.10;99.90;;;18.84;73.57;98051.91;5020805;28;20067;-69
2021/06/09 06:38:54;;;;;;;14.88;10.88;;;19.90;99.90;;;18.97;73.43;98050.94;5033696;28;20108;-69
2021/06/09 06:41:22;;;;;;;14.23;9.75;;;19.90;99.90;;;19.00;72.74;98055.19;5018013;28;20064;-69
2021/06/09 06:43:51;;;;;;;11.95;10.75;;;19.90;99.90;;;19.14;72.69;98060.31;5019351;28;20041;-69
2021/06/09 06:46:22;;;;;;;11.15;9.60;;;20.00;99.90;;;19.21;72.45;98063.38;5019666;28;20053;-69
2021/06/09 06:48:53;;;;;;;10.13;8.63;;;20.10;99.90;;;19.22;72.91;98063.25;5019856;28;20049;-69
2021/06/09 06:51:23;;;;;;;11.90;9.45;;;20.20;99.90;;;19.30;72.11;98065.34;5018190;28;20041;-68
2021/06/09 06:53:54;;;;;;;13.05;9.02;;;20.30;99.90;;;19.54;73.90;98059.28;5020234;28;20041;-69
2021/06/09 06:56:25;;;;;;;11.93;10.20;;;20.50;99.90;;;19.51;70.42;98064.78;5017693;28;20061;-69
2021/06/09 06:58:52;;;;;;;13.13;10.35;;;20.70;99.90;;;19.51;69.15;98064.78;5020149;28;20061;-69
2021/06/09 07:01:32;;;;;;;9.60;8.60;;;20.60;99.90;;;19.74;70.61;98069.25;5019441;28;20045;-69
2021/06/09 07:04:02;;;;;;;11.95;9.57;;;20.60;99.90;;;19.57;70.20;98075.72;5034077;28;20048;-69
2021/06/09 07:06:29;;;;;;;10.82;9.05;;;20.70;99.90;;;19.76;70.98;98066.53;5018367;28;20061;-70
2021/06/09 07:09:18;;;;;;;10.32;9.07;;;20.90;99.90;;;20.03;69.93;98071.59;5019533;28;20061;-69
2021/06/09 07:11:52;;;;;;;9.90;8.93;;;21.10;99.90;;;19.98;68.74;98065.78;5034043;28;20200;-68
2021/06/09 07:14:29;;;;;;;10.00;8.80;;;21.20;99.90;;;19.82;69.30;98071.38;5021788;28;20413;-69
2021/06/09 07:16:57;;;;;;;10.85;9.52;;;21.20;99.90;;;19.96;69.22;98073.00;5004991;28;20444;-70
2021/06/09 07:19:24;;;;;;;13.60;10.13;;;21.20;99.90;;;19.97;68.33;98072.84;5020473;28;20451;-69
2021/06/09 07:22:11;;;;;;;10.93;8.30;;;21.20;99.90;;;20.36;70.13;98077.94;5021257;28;20099;-69
2021/06/09 07:24:38;;;;;;;11.25;9.05;;;21.30;99.90;;;20.57;68.53;98075.50;5020338;28;20524;-68
2021/06/09 07:27:07;;;;;;;10.35;8.93;;;21.40;99.90;;;20.40;69.64;98072.31;5035206;28;20041;-69
2021/06/09 07:29:37;;;;;;;10.77;8.52;;;21.40;99.90;;;20.67;68.74;98079.97;5019539;28;20041;-68
2021/06/09 07:32:08;;;;;;;9.55;8.10;;;21.50;99.90;;;20.56;68.67;98082.59;5018118;28;20104;-69
2021/06/09 07:34:35;;;;;;;10.80;8.13;;;21.70;99.90;;;20.64;68.60;98074.94;5022089;28;20060;-69
2021/06/09 07:37:11;;;;;;;8.80;7.30;;;21.80;99.90;;;21.08;67.66;98078.59;5023607;28;20042;-69
2021/06/09 07:39:45;;;;;;;9.05;8.15;;;22.00;99.90;;;21.21;66.25;98081.16;5039349;28;20140;-69
2021/06/09 07:42:16;;;;;;;10.60;8.40;;;22.10;99.90;;;21.01;67.29;98090.59;5030797;28;20116;-69
2021/06/09 07:44:54;;;;;;;10.05;7.25;;;22.10;99.90;;;20.98;66.26;98092.63;5022024;28;20077;-68
2021/06/09 07:47:22;;;;;;;8.85;7.55;;;22.20;99.90;;;21.44;65.60;98091.72;5023520;28;20129;-69
2021/06/09 07:49:53;;;;;;;9.77;8.30;;;22.30;99.90;;;21.42;65.63;98091.84;5038649;28;20438;-68
2021/06/09 07:52:22;;;;;;;8.75;7.05;;;22.50;99.90;;;21.62;65.18;98087.63;5023297;28;20037;-69
2021/06/09 07:54:51;;;;;;;12.27;8.45;;;22.60;99.90;;;21.36;65.41;98091.47;5022589;28;20041;-69
2021/06/09 07:57:19;;;;;;;9.13;7.32;;;22.50;99.90;;;21.61;65.29;98091.22;5021179;28;20506;-69
2021/06/09 07:59:49;;;;;;;8.63;6.88;;;22.50;99.90;;;21.65;62.99;98091.84;5023609;28;20115;-68
2021/06/09 08:02:20;;;;;;;11.40;9.40;;;22.70;99.90;;;21.25;66.21;98090.47;5037007;28;20501;-68
2021/06/09 08:04:49;;;;;;;9.82;8.68;;;22.40;99.90;;;21.22;66.22;98084.63;5022110;28;20049;-67
2021/06/09 08:07:16;;;;;;;8.65;7.30;;;22.40;99.90;;;21.33;64.82;98100.47;5019937;28;20139;-69
2021/06/09 08:09:44;;;;;;;11.52;7.35;;;22.40;99.90;;;21.36;62.34;98089.66;5023381;28;20041;-68
2021/06/09 08:12:11;;;;;;;7.70;6.90;;;22.40;99.90;;;21.48;64.25;98094.00;5023315;28;20076;-68
2021/06/09 08:14:39;;;;;;;10.52;6.82;;;22.50;99.90;;;21.57;62.37;98097.69;5023457;28;20128;-69
2021/06/09 08:17:09;;;;;;;7.95;7.07;;;22.70;99.90;;;21.59;62.77;98095.78;5021757;28;20106;-69
2021/06/09 08:19:36;;;;;;;7.78;5.70;;;22.90;99.90;;;21.88;60.74;98088.19;5023807;28;20097;-68
2021/06/09 08:22:04;;;;;;;7.45;5.28;;;23.40;99.90;;;22.03;59.78;98087.88;5028874;28;20091;-68
2021/06/09 08:24:31;;;;;;;8.88;5.25;;;23.80;99.90;;;22.43;58.74;98085.50;5022822;28;20069;-68
2021/06/09 08:27:04;;;;;;;5.90;4.57;;;24.10;99.90;;;22.40;57.73;98088.41;5022153;28;20117;-67
2021/06/09 08:29:38;;;;;;;6.63;4.95;;;24.40;99.90;;;22.80;57.69;98082.41;5022427;28;20627;-68
2021/06/09 08:32:06;;;;;;;10.40;5.55;;;24.50;99.90;;;23.18;57.91;98084.44;5021213;28;20087;-68
2021/06/09 08:34:34;;;;;;;5.22;3.88;;;25.00;99.90;;;23.44;55.02;98072.56;5020738;28;21530;-69
2021/06/09 08:37:02;;;;;;;5.97;3.75;;;25.30;99.90;;;23.80;53.76;98076.47;5022079;28;20037;-69
2021/06/09 08:39:30;;;;;;;8.13;4.18;;;25.60;99.90;;;23.96;53.01;98076.75;5022025;28;20272;-69
2021/06/09 08:42:02;;;;;;;5.45;4.20;;;25.60;99.90;;;23.97;53.70;98078.44;5021871;28;20258;-69
2021/06/09 08:44:33;;;;;;;6.38;4.13;;;25.90;99.90;;;24.48;53.25;98075.72;5021379;28;20046;-69
2021/06/09 08:47:03;;;;;;;;;;;26.20;99.90;;;25.23;52.02;98076.69;5021478;28;20133;-68
2021/06/09 08:49:32;;;;;;;7.25;4.50;;;26.50;99.90;;;25.00;51.39;98086.81;5021940;28;19966;-70
2021/06/09 08:52:03;;;;;;;6.00;4.93;;;26.60;99.90;;;24.56;50.85;98089.09;5022928;28;20053;-68
2021/06/09 08:54:30;;;;;;;7.63;5.20;;;26.20;99.90;;;24.69;49.52;98084.34;5022730;28;20469;-69
2021/06/09 08:56:57;;;;;;;6.45;4.20;;;25.90;99.90;;;24.91;50.75;98085.00;5034647;28;20046;-69
2021/06/09 08:59:25;;;;;;;8.85;4.55;;;26.10;99.90;;;25.33;50.56;98082.78;5021952;28;20099;-69
2021/06/09 09:01:52;;;;;;;5.97;3.85;;;26.40;99.90;;;26.01;49.05;98090.44;5021325;28;20085;-69
2021/06/09 09:04:19;;;;;;;7.35;4.80;;;26.70;99.90;;;25.25;48.11;98082.69;5020877;28;20050;-69
2021/06/09 09:06:46;;;;;;;7.63;4.40;;;26.80;99.90;;;25.28;47.92;98078.91;5020705;28;20091;-68
2021/06/09 09:09:13;;;;;;;5.70;4.30;;;26.50;99.90;;;26.02;45.83;98086.78;5018615;28;20038;-69
2021/06/09 09:11:40;;;;;;;6.53;4.30;;;26.70;99.90;;;25.87;46.00;98089.13;5021636;28;20049;-69
2021/06/09 09:14:08;;;;;;;5.85;3.67;;;26.80;99.90;;;26.96;45.17;98080.13;5022234;28;20034;-69
2021/06/09 09:16:35;;;;;;;4.90;3.72;;;27.50;99.90;;;27.43;44.31;98082.38;5019513;28;20046;-68
2021/06/09 09:19:04;;;;;;;4.78;3.30;;;28.20;99.90;;;27.36;44.33;98076.03;5021862;28;20402;-68
2021/06/09 09:21:39;;;;;;;5.43;4.90;;;28.30;99.90;;;26.33;45.52;98080.25;5021849;28;20547;-69
2021/06/09 09:24:11;;;;;;;5.82;3.78;;;28.20;99.90;;;26.84;45.98;98082.19;5036706;28;20042;-69
2021/06/09 09:26:43;;;;;;;5.28;4.78;;;28.60;99.90;;;27.05;44.60;98087.16;5020051;28;20146;-69
2021/06/09 09:29:21;;;;;;;;;;;28.40;99.90;;;27.44;42.27;98075.25;5021820;28;20142;-69
2021/06/09 09:31:57;;;;;;;6.57;4.18;;;28.70;99.90;;;26.86;40.58;98077.53;5020264;28;19928;-69
2021/06/09 09:34:40;;;;;;;5.28;4.78;;;28.80;99.90;;;26.39;41.20;98084.94;5023102;28;20048;-69
2021/06/09 09:37:24;;;;;;;6.05;4.00;;;28.50;99.90;;;27.79;41.69;98073.34;5021536;28;20049;-69
2021/06/09 09:40:15;;;;;;;6.40;3.85;;;28.90;99.90;;;28.83;40.93;98072.84;5025886;28;20118;-69
2021/06/09 09:42:47;;;;;;;6.82;4.22;;;29.40;99.90;;;27.93;41.07;98075.41;5030661;28;20037;-69
2021/06/09 09:45:28;;;;;;;5.30;4.25;;;29.10;99.90;;;27.38;43.16;98082.03;5041610;28;20092;-69
2021/06/09 09:48:14;;;;;;;4.57;3.85;;;29.10;99.90;;;28.28;42.16;98084.13;5014776;28;20045;-69
2021/06/09 09:50:46;;;;;;;6.55;5.45;;;29.30;99.90;;;26.28;41.81;98081.53;5027478;28;20464;-69
2021/06/09 09:53:22;;;;;;;5.78;5.15;;;29.00;99.90;;;27.32;41.75;98078.19;5030262;28;20328;-69
2021/06/09 09:56:08;;;;;;;5.53;4.05;;;28.90;99.90;;;28.58;40.16;98085.38;5044386;28;20096;-69
2021/06/09 09:58:52;;;;;;;5.35;4.18;;;29.60;99.90;;;28.37;40.73;98093.81;5015424;28;20495;-69
2021/06/09 10:01:23;;;;;;;6.00;4.50;;;30.10;99.90;;;27.25;42.47;98082.44;5029691;28;20354;-69
2021/06/09 10:03:57;;;;;;;6.93;5.45;;;29.20;99.90;;;26.41;42.96;98093.63;5026271;28;20068;-69
2021/06/09 10:06:45;;;;;;;10.45;4.47;;;28.20;99.90;;;27.43;42.22;98079.72;5018033;28;20037;-69
2021/06/09 10:09:39;;;;;;;5.22;3.60;;;28.80;99.90;;;28.36;41.31;98078.81;5031244;28;20056;-70
2021/06/09 10:12:11;;;;;;;5.35;4.40;;;29.70;99.90;;;27.60;43.12;98077.97;5018832;28;20058;-69
2021/06/09 10:14:50;;;;;;;8.10;6.00;;;29.50;99.90;;;27.50;43.03;98075.41;5028498;28;20131;-69
2021/06/09 10:17:26;;;;;;;11.48;5.40;;;29.30;99.90;;;28.30;41.22;98074.97;5026675;28;20045;-69
2021/06/09 10:20:00;;;;;;;5.78;4.07;;;30.20;99.90;;;27.15;41.31;98076.38;5030353;28;20057;-69
2021/06/09 10:22:35;;;;;;;6.57;3.72;;;30.00;99.90;;;26.84;41.21;98078.69;5030252;28;20065;-69
2021/06/09 10:25:07;;;;;;;8.00;4.10;;;29.40;99.30;;;24.98;42.68;98084.28;5026044;28;20477;-69
2021/06/09 10:27:53;;;;;;;4.53;3.65;;;28.10;99.10;;;24.81;41.57;98085.00;5025096;28;20445;-70
2021/06/09 10:30:27;;;;;;;7.60;3.78;;;26.60;99.50;;;24.42;43.35;98080.53;5028688;28;20068;-68
2021/06/09 10:33:01;;;;;;;5.03;4.10;;;25.90;99.90;;;23.53;46.97;98082.34;5024735;28;20050;-69